Terminal Aerodrome Forecast
Issued by NWS

Home | Current Version | Previous Version | Text Only | Print | Product List | Glossary On
Versions: 1 2 3 4 5 6 7 8 9 10 11 12 13 14 15 16 17 18 19 20 21 22 23 24 25
567
FTUS43 KDVN 141140
TAFBRL
TAF
KBRL 141140Z 1412/1512 13013KT P6SM BKN011 OVC050
     FM141400 14015G22KT 1SM -SN BR OVC009
     FM141900 14011KT 2SM -SN BR OVC012
     FM142200 14008KT 5SM -SN BR OVC020
     FM150000 15006KT 6SM BR OVC015=

USA.gov is the U.S. government's official web portal to all federal, state and local government web resources and services.